ADDS METAR Data INFO
IDs: Format: Raw Decoded Include TAF

Data at: 1956 UTC 18 Feb 2018

KTQE 181954Z AUTO 19021G32KT 10SM CLR 11/00 A2958 RMK AO2 PK WND 18038/1900 SLP019 T01060000
KTQE 181854Z AUTO 18025G36KT 10SM CLR 10/01 A2962 RMK AO2 PK WND 19044/1815 SLP032 T01000006
KTQE 181754Z AUTO 18025G35KT 10SM CLR 09/01 A2966 RMK AO2 PK WND 17042/1706 PRESFR SLP046 T00890006 10089 20006 58034
KTQE 181654Z AUTO 17024G39KT 10SM CLR 07/M01 A2971 RMK AO2 PK WND 18039/1651 SLP066 T00671006
KTQE 181554Z AUTO 17026G35KT 10SM CLR 04/M02 A2973 RMK AO2 PK WND 16035/1553 SLP071 T00441017
KTQE 181454Z AUTO 17021KT 10SM CLR 03/M03 A2976 RMK AO2 PK WND 17029/1447 SLP084 T00281028 56035
KTQE 181354Z AUTO 16017KT 10SM CLR 01/M04 A2978 RMK AO2 SLP091 T00111039
KTQE 181254Z AUTO 17016KT 10SM CLR 01/M04 A2982 RMK AO2 SLP102 T00061044
KTQE 181154Z AUTO 16015KT 10SM CLR 01/M04 A2987 RMK AO2 SLP120 T00061039 10006 21028 56037
KTQE 181054Z AUTO 15011KT 10SM CLR M02/M04 A2990 RMK AO2 SLP130 T10171039
KTQE 180954Z AUTO 14013KT 10SM CLR M02/M04 A2993 RMK AO2 SLP140 T10171039
KTQE 180854Z AUTO 14011KT 10SM CLR M02/M04 A2998 RMK AO2 SLP158 T10221044 58024
KTQE 180754Z AUTO 14008KT 10SM CLR M02/M04 A3001 RMK AO2 SLP167 T10221039
KTQE 180654Z AUTO 15007KT 10SM CLR M02/M04 A3004 RMK AO2 SLP177 T10221039
KTQE 180554Z AUTO 12008KT 10SM CLR M02/M04 A3006 RMK AO2 SLP184 I6000 T10221039 10011 21028 400611039 58026
KTQE 180454Z AUTO 17007KT 10SM CLR M02/M03 A3009 RMK AO2 SLP194 I1000 T10221033
KTQE 180354Z AUTO 14003KT 10SM CLR M02/M03 A3011 RMK AO2 SLP205 T10221033
KTQE 180254Z AUTO 20003KT 10SM CLR M02/M03 A3013 RMK AO2 SLP213 T10171028 50003
KTQE 180154Z AUTO 10003KT 10SM CLR M01/M02 A3014 RMK AO2 SLP214 T10111022
KTQE 180054Z AUTO 36005KT 10SM CLR M01/M03 A3014 RMK AO2 SLP215 T10061028
KTQE 172354Z AUTO 35006KT 10SM CLR 01/M02 A3012 RMK AO2 SLP208 T00111022 10061 20011 50021
KTQE 172254Z AUTO 31011KT 10SM CLR 03/M02 A3012 RMK AO2 SLP207 T00331022
KTQE 172154Z AUTO 32010KT 10SM CLR 04/M02 A3010 RMK AO2 SLP199 T00441022
KTQE 172054Z AUTO 32016KT 10SM CLR 05/M02 A3006 RMK AO2 SLP184 T00501022 53015
KTQE 171954Z AUTO 32016KT 10SM CLR 06/M02 A3003 RMK AO2 SLP174 T00611022
KTQE 171854Z AUTO 30010KT 10SM CLR 05/M02 A3003 RMK AO2 SLP173 T00501017
KTQE 171754Z AUTO 32010KT 10SM CLR 03/M02 A3001 RMK AO2 SLP170 60000 T00331022 10033 21033 53022
KTQE 171654Z AUTO 33015KT 10SM CLR 02/M03 A2999 RMK AO2 SLP162 T00221033
KTQE 171554Z AUTO 30008KT 10SM CLR 00/M05 A2996 RMK AO2 SLP155 T00001050
KTQE 171454Z AUTO 24004KT 10SM FEW037 SCT060 M03/M05 A2995 RMK AO2 SNB1358E37 SLP150 P0000 60000 T10281050 53020
KTQE 171437Z AUTO 23005KT 8SM SCT018 BKN037 BKN055 M03/M04 A2993 RMK AO2 SNB1358E37 P0000 T10281044
KTQE 171433Z AUTO 24006KT 2 1/2SM -SN BR BKN018 BKN037 M03/M05 A2994 RMK AO2 SNB1358 P0000 T10281050
KTQE 171422Z AUTO 26008KT 1/2SM SN FZFG VV016 M03/M05 A2994 RMK AO2 SNB1358 P0000 T10331050
KTQE 171408Z AUTO 27008KT 1 3/4SM -SN BKN024 OVC050 M02/M06 A2993 RMK AO2 SNB1358 PRESRR P0000 T10221061
KTQE 171404Z AUTO 23006KT 3SM -SN BKN024 OVC050 M02/M07 A2991 RMK AO2 SNB1358 P0000 T10221067
KTQE 171354Z AUTO 21004KT 10SM SCT036 OVC050 M02/M07 A2991 RMK AO2 SLP136 T10221067
KTQE 171254Z AUTO 21004KT 10SM FEW042 OVC050 M03/M06 A2990 RMK AO2 SLP133 T10281061
KTQE 171154Z AUTO 16007KT 10SM BKN120 M03/M07 A2989 RMK AO2 SLP128 T10281072 11028 21039 56027
KTQE 171054Z AUTO 16008KT 10SM OVC090 M03/M07 A2991 RMK AO2 SLP135 T10281072
KTQE 170954Z AUTO 15008KT 10SM OVC090 M03/M08 A2993 RMK AO2 SLP141 T10281078
KTQE 170854Z AUTO 16009KT 10SM OVC095 M03/M08 A2997 RMK AO2 SLP157 T10281078 56031